createdAt,value
2018-09-21T00:00:56.394Z,33.6
2018-09-21T00:01:58.829Z,33.4
2018-09-21T00:03:01.259Z,33.6
2018-09-21T00:04:03.703Z,33.6
2018-09-21T00:05:06.139Z,33.6
2018-09-21T00:06:08.572Z,33.7
2018-09-21T00:07:11.007Z,33.6
2018-09-21T00:08:13.172Z,33.6
2018-09-21T00:09:15.607Z,33.6
2018-09-21T00:10:18.040Z,33.6
2018-09-21T00:11:20.468Z,33.6
2018-09-21T00:12:22.629Z,33.7
2018-09-21T00:13:24.787Z,33.6
2018-09-21T00:14:26.959Z,33.6
2018-09-21T00:15:29.394Z,33.7
2018-09-21T00:16:31.554Z,33.5
2018-09-21T00:17:33.997Z,33.8
2018-09-21T00:18:36.421Z,33.5
2018-09-21T00:19:38.854Z,33.7
2018-09-21T00:20:40.989Z,33.6
2018-09-21T00:21:42.596Z,33.7
2018-09-21T00:22:44.731Z,33.5
2018-09-21T00:23:46.894Z,33.7
2018-09-21T00:24:49.045Z,33.8
2018-09-21T00:25:51.190Z,33.7
2018-09-21T00:26:53.622Z,33.6
2018-09-21T00:27:56.081Z,33.6
2018-09-21T00:28:58.253Z,33.8
2018-09-21T00:30:00.685Z,33.7
2018-09-21T00:31:03.112Z,33.7
2018-09-21T00:32:05.548Z,33.7
2018-09-21T00:33:07.984Z,33.7
2018-09-21T00:34:10.423Z,33.7
2018-09-21T00:35:12.596Z,33.8
2018-09-21T00:36:15.021Z,33.7
2018-09-21T00:37:17.456Z,33.7
2018-09-21T00:38:19.618Z,33.7
2018-09-21T00:39:22.080Z,33.7
2018-09-21T00:40:24.506Z,33.6
2018-09-21T00:41:26.926Z,33.7
2018-09-21T00:42:29.365Z,33.9
2018-09-21T00:43:31.791Z,33.7
2018-09-21T00:44:34.210Z,33.8
2018-09-21T00:45:36.652Z,33.7
2018-09-21T00:46:39.087Z,33.7
2018-09-21T00:47:41.514Z,33.8
2018-09-21T00:48:43.672Z,33.7
2018-09-21T00:49:46.108Z,33.8
2018-09-21T00:50:48.533Z,33.7
2018-09-21T00:51:50.967Z,33.8
2018-09-21T00:52:53.419Z,33.9
2018-09-21T00:53:55.847Z,33.7
2018-09-21T00:54:58.275Z,33.8
2018-09-21T00:56:00.719Z,33.7
2018-09-21T00:57:03.148Z,33.7
2018-09-21T00:58:05.575Z,33.9
2018-09-21T00:59:08.007Z,33.8
2018-09-21T01:00:10.438Z,33.8
2018-09-21T01:01:12.601Z,33.7
2018-09-21T01:02:15.025Z,33.8
2018-09-21T01:03:17.456Z,33.8
2018-09-21T01:04:19.886Z,33.8
2018-09-21T01:05:22.313Z,33.8
2018-09-21T01:06:24.748Z,33.8
2018-09-21T01:07:26.912Z,33.9
2018-09-21T01:08:29.347Z,33.7
2018-09-21T01:09:31.780Z,33.8
2018-09-21T01:10:34.219Z,33.8
2018-09-21T01:11:36.648Z,33.7
2018-09-21T01:12:39.079Z,33.8
2018-09-21T01:13:41.515Z,33.9
2018-09-21T01:14:43.949Z,33.8
2018-09-21T01:15:46.386Z,33.8
2018-09-21T01:16:48.820Z,33.9
2018-09-21T01:17:51.257Z,33.7
2018-09-21T01:18:53.690Z,33.8
2018-09-21T01:19:56.122Z,33.8
2018-09-21T01:20:58.555Z,33.9
2018-09-21T01:22:00.996Z,33.8
2018-09-21T01:23:03.419Z,33.8
2018-09-21T01:24:05.857Z,33.9
2018-09-21T01:25:08.286Z,33.8
2018-09-21T01:26:10.734Z,33.8
2018-09-21T01:27:13.177Z,34
2018-09-21T01:28:15.608Z,33.9
2018-09-21T01:29:18.042Z,33.8
2018-09-21T01:30:20.470Z,33.8
2018-09-21T01:31:22.901Z,33.9
2018-09-21T01:32:25.336Z,33.8
2018-09-21T01:33:27.499Z,34
2018-09-21T01:34:29.926Z,33.9
2018-09-21T01:35:32.366Z,34
2018-09-21T01:36:34.795Z,33.9
2018-09-21T01:37:37.229Z,33.9
2018-09-21T01:38:39.663Z,33.8
2018-09-21T01:39:42.097Z,33.8
2018-09-21T01:40:44.531Z,34
2018-09-21T01:41:46.953Z,33.8
2018-09-21T01:42:49.407Z,34
2018-09-21T01:43:51.847Z,33.9
2018-09-21T01:44:54.286Z,33.9
2018-09-21T01:45:56.716Z,33.8
2018-09-21T01:46:59.148Z,33.9
2018-09-21T01:48:01.304Z,33.9
2018-09-21T01:49:03.754Z,33.9
2018-09-21T01:50:06.185Z,34
2018-09-21T01:51:08.622Z,33.9
2018-09-21T01:52:11.063Z,33.8
2018-09-21T01:53:13.217Z,33.9
2018-09-21T01:54:15.651Z,33.9
2018-09-21T01:55:17.795Z,33.8
2018-09-21T01:56:20.235Z,34
2018-09-21T01:57:22.683Z,33.8
2018-09-21T01:58:25.115Z,33.8
2018-09-21T01:59:27.546Z,33.9
2018-09-21T02:00:29.713Z,33.9
2018-09-21T02:01:32.146Z,33.8
2018-09-21T02:02:34.585Z,33.9
2018-09-21T02:03:37.029Z,33.9
2018-09-21T02:04:39.472Z,33.8
2018-09-21T02:05:41.913Z,33.8
2018-09-21T02:06:44.346Z,33.9
2018-09-21T02:07:46.501Z,33.9
2018-09-21T02:08:48.938Z,33.9
2018-09-21T02:09:51.366Z,33.9
2018-09-21T02:10:53.541Z,33.7
2018-09-21T02:11:55.967Z,33.9
2018-09-21T02:12:58.406Z,33.9
2018-09-21T02:14:00.836Z,33.9
2018-09-21T02:15:03.270Z,33.8
2018-09-21T02:16:05.423Z,33.9
2018-09-21T02:17:07.847Z,33.9
2018-09-21T02:18:10.301Z,33.9
2018-09-21T02:19:12.717Z,33.9
2018-09-21T02:20:14.855Z,34
2018-09-21T02:21:17.300Z,33.8
2018-09-21T02:22:19.718Z,33.9
2018-09-21T02:23:21.875Z,33.9
2018-09-21T02:24:24.057Z,33.9
2018-09-21T02:25:26.508Z,34
2018-09-21T02:26:28.936Z,33.8
2018-09-21T02:27:31.364Z,33.9
2018-09-21T02:28:33.527Z,34
2018-09-21T02:29:35.956Z,33.9
2018-09-21T02:30:38.394Z,34
2018-09-21T02:31:40.822Z,33.8
2018-09-21T02:32:43.267Z,33.8
2018-09-21T02:33:45.693Z,33.8
2018-09-21T02:34:48.133Z,33.9
2018-09-21T02:35:50.607Z,33.9
2018-09-21T02:36:53.040Z,33.9
2018-09-21T02:37:55.466Z,33.9
2018-09-21T02:38:57.898Z,33.9
2018-09-21T02:40:00.340Z,34
2018-09-21T02:41:02.766Z,33.9
2018-09-21T02:42:05.214Z,33.9
2018-09-21T02:43:07.650Z,33.9
2018-09-21T02:44:10.084Z,34
2018-09-21T02:45:12.521Z,34
2018-09-21T02:46:14.950Z,33.9
2018-09-21T02:47:17.377Z,34
2018-09-21T02:48:19.824Z,34
2018-09-21T02:49:22.254Z,33.9
2018-09-21T02:50:24.690Z,33.9
2018-09-21T02:51:27.113Z,33.9
2018-09-21T02:52:29.552Z,34
2018-09-21T02:53:31.977Z,34
2018-09-21T02:54:34.399Z,33.9
2018-09-21T02:55:36.834Z,33.9
2018-09-21T02:56:39.275Z,33.8
2018-09-21T02:57:41.717Z,34
2018-09-21T02:58:44.158Z,34.1
2018-09-21T02:59:46.589Z,34
2018-09-21T03:00:49.379Z,34
2018-09-21T03:01:52.209Z,34.1
2018-09-21T03:02:54.644Z,34
2018-09-21T03:03:57.109Z,33.8
2018-09-21T03:04:59.553Z,33.9
2018-09-21T03:06:01.727Z,33.9
2018-09-21T03:07:04.153Z,33.9
2018-09-21T03:08:06.315Z,33.9
2018-09-21T03:09:08.739Z,33.9
2018-09-21T03:10:11.187Z,33.8
2018-09-21T03:11:13.612Z,33.8
2018-09-21T03:12:16.038Z,33.7
2018-09-21T03:13:18.253Z,33.7
2018-09-21T03:14:20.954Z,33.8
2018-09-21T03:15:23.465Z,33.8
2018-09-21T03:16:25.628Z,33.9
2018-09-21T03:17:28.080Z,33.7
2018-09-21T03:18:30.506Z,33.8
2018-09-21T03:19:32.937Z,33.8
2018-09-21T03:20:35.101Z,33.6
2018-09-21T03:21:37.537Z,33.6
2018-09-21T03:22:39.972Z,33.6
2018-09-21T03:23:42.406Z,33.5
2018-09-21T03:24:44.558Z,33.6
2018-09-21T03:25:46.716Z,33.4
2018-09-21T03:26:49.158Z,33.5
2018-09-21T03:27:51.588Z,33.7
2018-09-21T03:28:54.011Z,33.6
2018-09-21T03:29:56.470Z,33.5
2018-09-21T03:30:58.630Z,33.6
2018-09-21T03:32:01.065Z,33.5
2018-09-21T03:33:03.498Z,33.5
2018-09-21T03:34:05.924Z,33.6
2018-09-21T03:35:08.424Z,33.5
2018-09-21T03:36:10.935Z,33.6
2018-09-21T03:37:13.386Z,33.6
2018-09-21T03:38:15.817Z,33.6
2018-09-21T03:39:18.267Z,33.6
2018-09-21T03:40:20.698Z,33.6
2018-09-21T03:41:23.125Z,33.5
2018-09-21T03:42:25.278Z,33.5
2018-09-21T03:43:27.711Z,33.5
2018-09-21T03:44:29.876Z,33.5
2018-09-21T03:45:32.307Z,33.5
2018-09-21T03:46:34.733Z,33.5
2018-09-21T03:47:37.165Z,33.5
2018-09-21T03:48:39.609Z,33.5
2018-09-21T03:49:42.036Z,33.4
2018-09-21T03:50:44.473Z,33.4
2018-09-21T03:51:46.893Z,33.4
2018-09-21T03:52:49.328Z,33.4
2018-09-21T03:53:51.768Z,33.4
2018-09-21T03:54:54.386Z,33.4
2018-09-21T03:55:57.107Z,33.5
2018-09-21T03:56:59.641Z,33.5
2018-09-21T03:58:01.846Z,33.4
2018-09-21T03:59:04.286Z,33.5
2018-09-21T04:00:06.718Z,33.5
2018-09-21T04:01:09.321Z,33.5
2018-09-21T04:02:12.049Z,33.5
2018-09-21T04:03:14.501Z,33.4
2018-09-21T04:04:16.956Z,33.5
2018-09-21T04:05:19.387Z,33.5
2018-09-21T04:06:21.839Z,33.5
2018-09-21T04:07:24.297Z,33.5
2018-09-21T04:08:26.743Z,33.4
2018-09-21T04:09:29.181Z,33.5
2018-09-21T04:10:31.326Z,33.5
2018-09-21T04:11:33.778Z,33.4
2018-09-21T04:12:35.941Z,33.4
2018-09-21T04:13:38.134Z,33.4
2018-09-21T04:14:40.294Z,33.4
2018-09-21T04:15:42.727Z,33.4
2018-09-21T04:16:45.155Z,33.5
2018-09-21T04:17:47.589Z,33.5
2018-09-21T04:18:50.025Z,33.5
2018-09-21T04:19:52.470Z,33.5
2018-09-21T04:20:54.613Z,33.4
2018-09-21T04:21:57.037Z,33.6
2018-09-21T04:22:59.497Z,33.4
2018-09-21T04:24:02.257Z,33.4
2018-09-21T04:25:04.710Z,33.4
2018-09-21T04:26:07.146Z,33.3
2018-09-21T04:27:09.578Z,33.4
2018-09-21T04:28:11.745Z,33.4
2018-09-21T04:29:14.177Z,33.3
2018-09-21T04:30:16.608Z,33.4
2018-09-21T04:31:19.035Z,33.4
2018-09-21T04:32:21.467Z,33.4
2018-09-21T04:33:23.908Z,33.4
2018-09-21T04:34:26.337Z,33.3
2018-09-21T04:35:28.776Z,33.4
2018-09-21T04:36:31.236Z,33.4
2018-09-21T04:37:33.675Z,33.4
2018-09-21T04:38:36.109Z,33.5
2018-09-21T04:39:38.542Z,33.4
2018-09-21T04:40:40.973Z,33.4
2018-09-21T04:41:43.123Z,33.4
2018-09-21T04:42:45.294Z,33.3
2018-09-21T04:43:47.728Z,33.3
2018-09-21T04:44:50.165Z,33.3
2018-09-21T04:45:52.424Z,33.3
2018-09-21T04:46:55.192Z,33.5
2018-09-21T04:47:57.343Z,33.5
2018-09-21T04:48:59.773Z,33.3
2018-09-21T04:50:02.209Z,33.4
2018-09-21T04:51:04.660Z,33.3
2018-09-21T04:52:07.093Z,33.3
2018-09-21T04:53:09.516Z,33.4
2018-09-21T04:54:11.946Z,33.5
2018-09-21T04:55:14.375Z,33.3
2018-09-21T04:56:16.546Z,33.4
2018-09-21T04:57:18.706Z,33.3
2018-09-21T04:58:21.138Z,33.4
2018-09-21T04:59:23.577Z,33.4
2018-09-21T05:00:26.004Z,33.4
2018-09-21T05:01:28.423Z,33.4
2018-09-21T05:02:30.876Z,33.4
2018-09-21T05:03:33.306Z,33.3
2018-09-21T05:04:35.206Z,33.4
2018-09-21T05:05:37.636Z,33.5
2018-09-21T05:06:40.081Z,33.4
2018-09-21T05:07:42.528Z,33.4
2018-09-21T05:08:44.967Z,33.4
2018-09-21T05:09:47.423Z,33.4
2018-09-21T05:10:49.859Z,33.4
2018-09-21T05:11:51.755Z,33.4
2018-09-21T05:12:54.191Z,33.5
2018-09-21T05:13:56.625Z,33.3
2018-09-21T05:14:59.054Z,33.4
2018-09-21T05:16:01.205Z,33.5
2018-09-21T05:17:03.641Z,33.4
2018-09-21T05:18:06.089Z,33.3
2018-09-21T05:19:08.513Z,33.4
2018-09-21T05:20:10.948Z,33.4
2018-09-21T05:21:13.382Z,33.4
2018-09-21T05:22:15.831Z,33.5
2018-09-21T05:23:18.259Z,33.5
2018-09-21T05:24:20.689Z,33.4
2018-09-21T05:25:23.116Z,33.3
2018-09-21T05:26:25.548Z,33.4
2018-09-21T05:27:28.051Z,33.4
2018-09-21T05:28:30.553Z,33.3
2018-09-21T05:29:32.983Z,33.4
2018-09-21T05:30:35.422Z,33.3
2018-09-21T05:31:37.905Z,33.5
2018-09-21T05:32:40.369Z,33.4
2018-09-21T05:33:42.875Z,33.4
2018-09-21T05:34:45.714Z,33.5
2018-09-21T05:35:49.271Z,33.4
2018-09-21T05:36:51.425Z,33.4
2018-09-21T05:37:53.865Z,33.4
2018-09-21T05:38:56.306Z,33.3
2018-09-21T05:39:58.471Z,33.3
2018-09-21T05:41:00.907Z,33.4
2018-09-21T05:42:03.335Z,33.3
2018-09-21T05:43:05.761Z,33.4
2018-09-21T05:44:08.187Z,33.4
2018-09-21T05:45:10.612Z,33.2
2018-09-21T05:46:13.057Z,33.3
2018-09-21T05:47:15.611Z,33.2
2018-09-21T05:48:18.299Z,33.3
2018-09-21T05:49:20.739Z,33.3
2018-09-21T05:50:23.194Z,33.4
2018-09-21T05:51:25.624Z,33.3
2018-09-21T05:52:28.076Z,33.3
2018-09-21T05:53:30.520Z,33.3
2018-09-21T05:54:32.652Z,33.4
2018-09-21T05:55:35.077Z,33.3
2018-09-21T05:56:37.501Z,33.4
2018-09-21T05:57:39.931Z,33.3
2018-09-21T05:58:42.359Z,33.4
2018-09-21T05:59:44.792Z,33.4
2018-09-21T06:00:47.216Z,33.1
2018-09-21T06:01:49.647Z,33.2
2018-09-21T06:02:52.112Z,33.2
2018-09-21T06:03:54.488Z,33.3
2018-09-21T06:04:56.923Z,33.2
2018-09-21T06:05:59.354Z,33.3
2018-09-21T06:07:01.795Z,33.3
2018-09-21T06:08:04.089Z,33.3
2018-09-21T06:09:06.797Z,33.4
2018-09-21T06:10:08.959Z,33.1
2018-09-21T06:11:11.378Z,33.3
2018-09-21T06:12:13.522Z,33.4
2018-09-21T06:13:15.962Z,33.3
2018-09-21T06:14:18.123Z,33.3
2018-09-21T06:15:20.563Z,33.3
2018-09-21T06:16:22.998Z,33.3
2018-09-21T06:17:25.447Z,33.4
2018-09-21T06:18:27.906Z,33.4
2018-09-21T06:19:30.599Z,33.3
2018-09-21T06:20:33.576Z,33.2
2018-09-21T06:21:36.029Z,33.3
2018-09-21T06:23:43.478Z,33.3
2018-09-21T06:24:45.924Z,33.2
2018-09-21T06:25:48.361Z,33.4
2018-09-21T06:26:50.798Z,33.3
2018-09-21T06:27:53.232Z,33.3
2018-09-21T06:28:55.657Z,33.2
2018-09-21T06:29:57.821Z,33.2
2018-09-21T06:31:00.257Z,33.3
2018-09-21T06:32:02.841Z,33.2
2018-09-21T06:33:05.368Z,33.4
2018-09-21T06:34:07.507Z,33.3
2018-09-21T06:35:09.933Z,33.4
2018-09-21T06:36:12.372Z,33.3
2018-09-21T06:37:14.801Z,33.2
2018-09-21T06:38:16.959Z,33.3
2018-09-21T06:39:19.408Z,33.3
2018-09-21T06:40:21.841Z,33.4
2018-09-21T06:41:24.295Z,33.3
2018-09-21T06:42:26.821Z,33.3
2018-09-21T06:43:29.316Z,33.2
2018-09-21T06:44:31.759Z,33.2
2018-09-21T06:45:33.940Z,33.3
2018-09-21T06:46:36.372Z,33.3
2018-09-21T06:47:38.806Z,33.2
2018-09-21T06:48:41.245Z,33.2
2018-09-21T06:49:43.506Z,33.3
2018-09-21T06:50:45.721Z,33.3
2018-09-21T06:51:48.161Z,33.3
2018-09-21T06:52:50.580Z,33.2
2018-09-21T06:53:52.742Z,33.3
2018-09-21T06:54:54.897Z,33.2
2018-09-21T06:55:57.328Z,33.3
2018-09-21T06:56:59.770Z,33.3
2018-09-21T06:58:02.210Z,33.3
2018-09-21T06:59:04.387Z,33.3
2018-09-21T07:00:06.827Z,33.2
2018-09-21T07:01:09.312Z,33.4
2018-09-21T07:02:11.813Z,33.3
2018-09-21T07:03:14.250Z,33.3
2018-09-21T07:04:16.694Z,33.3
2018-09-21T07:05:18.879Z,33.1
2018-09-21T07:06:21.318Z,33.2
2018-09-21T07:07:23.746Z,33.2
2018-09-21T07:08:26.258Z,33.4
2018-09-21T07:09:28.679Z,33.1
2018-09-21T07:10:31.124Z,33.2
2018-09-21T07:11:33.565Z,33.3
2018-09-21T07:12:35.988Z,33.3
2018-09-21T07:13:38.409Z,33.3
2018-09-21T07:14:40.848Z,33.4
2018-09-21T07:15:43.326Z,33.2
2018-09-21T07:16:45.627Z,33.3
2018-09-21T07:17:48.062Z,33.2
2018-09-21T07:18:50.493Z,33.3
2018-09-21T07:19:52.653Z,33.2
2018-09-21T07:20:55.088Z,33.3
2018-09-21T07:21:57.523Z,33.3
2018-09-21T07:22:59.965Z,33.3
2018-09-21T07:24:02.399Z,33.3
2018-09-21T07:25:04.864Z,33.1
2018-09-21T07:26:07.298Z,33.3
2018-09-21T07:27:09.750Z,33.3
2018-09-21T07:28:12.199Z,33.3
2018-09-21T07:29:14.637Z,33.2
2018-09-21T07:30:17.082Z,33.2
2018-09-21T07:31:19.579Z,33.3
2018-09-21T07:32:22.501Z,33.2
2018-09-21T07:33:24.939Z,33.2
2018-09-21T07:34:27.376Z,33.2
2018-09-21T07:35:29.814Z,33.3
2018-09-21T07:36:32.239Z,33.3
2018-09-21T07:37:34.904Z,33.3
2018-09-21T07:38:37.645Z,33.2
2018-09-21T07:39:40.067Z,33.3
2018-09-21T07:40:42.495Z,33.3
2018-09-21T07:41:44.920Z,33.3
2018-09-21T07:42:47.100Z,33.2
2018-09-21T07:43:49.576Z,33.2
2018-09-21T07:44:52.022Z,33.4
2018-09-21T07:45:54.466Z,33.2
2018-09-21T07:46:56.890Z,33.2
2018-09-21T07:47:59.349Z,33.2
2018-09-21T07:49:02.195Z,33.3
2018-09-21T07:50:05.051Z,33.1
2018-09-21T07:51:07.476Z,33.2
2018-09-21T07:52:09.918Z,33.4
2018-09-21T07:53:12.349Z,33.2
2018-09-21T07:54:14.868Z,33.2
2018-09-21T07:55:17.406Z,33.2
2018-09-21T07:56:19.850Z,33.3
2018-09-21T07:57:22.011Z,33.4
2018-09-21T07:58:24.446Z,33.3
2018-09-21T07:59:26.597Z,33.2
2018-09-21T08:00:29.031Z,33.3
2018-09-21T08:01:31.482Z,33.2
2018-09-21T08:02:33.642Z,33.2
2018-09-21T08:03:36.071Z,33.3
2018-09-21T08:04:38.530Z,33.2
2018-09-21T08:05:40.964Z,33.3
2018-09-21T08:06:43.385Z,33.2
2018-09-21T08:07:45.811Z,33.2
2018-09-21T08:08:48.270Z,33.2
2018-09-21T08:09:50.706Z,33.2
2018-09-21T08:10:53.150Z,33.2
2018-09-21T08:11:55.580Z,33.3
2018-09-21T08:12:58.222Z,33.3
2018-09-21T08:14:01.146Z,33.2
2018-09-21T08:15:03.576Z,33.2
2018-09-21T08:16:06.035Z,33.2
2018-09-21T08:17:08.469Z,33.1
2018-09-21T08:18:10.899Z,33.1
2018-09-21T08:19:13.332Z,33.2
2018-09-21T08:20:15.769Z,33.2
2018-09-21T08:21:18.242Z,33.1
2018-09-21T08:22:20.371Z,33.1
2018-09-21T08:23:22.797Z,33.2
2018-09-21T08:24:25.232Z,33.2
2018-09-21T08:25:27.656Z,33.3
2018-09-21T08:26:30.137Z,33.2
2018-09-21T08:27:32.614Z,33.1
2018-09-21T08:28:35.047Z,33.1
2018-09-21T08:29:37.504Z,33.1
2018-09-21T08:30:39.943Z,33.1
2018-09-21T08:31:42.384Z,33.2
2018-09-21T08:32:44.826Z,33.2
2018-09-21T08:33:47.257Z,33.1
2018-09-21T08:34:49.746Z,33.2
2018-09-21T08:35:52.200Z,33.2
2018-09-21T08:36:54.620Z,33.2
2018-09-21T08:37:57.069Z,33.2
2018-09-21T08:38:59.496Z,33.3
2018-09-21T08:40:01.656Z,33.1
2018-09-21T08:41:04.097Z,33.3
2018-09-21T08:42:06.532Z,33.3
2018-09-21T08:43:08.952Z,33.2
2018-09-21T08:44:11.380Z,33.1
2018-09-21T08:45:13.813Z,33.2
2018-09-21T08:46:16.243Z,33.1
2018-09-21T08:47:18.685Z,33.2
2018-09-21T08:48:21.116Z,33.2
2018-09-21T08:49:23.760Z,33.1
2018-09-21T08:50:26.198Z,33.2
2018-09-21T08:51:28.642Z,33.2
2018-09-21T08:52:31.069Z,33.2
2018-09-21T08:53:33.511Z,33.1
2018-09-21T08:54:35.672Z,33.2
2018-09-21T08:55:38.093Z,33.2
2018-09-21T08:56:40.541Z,33.4
2018-09-21T08:57:42.978Z,33.2
2018-09-21T08:58:45.129Z,33.2
2018-09-21T08:59:47.561Z,33.2
2018-09-21T09:00:49.704Z,33.2
2018-09-21T09:01:51.874Z,33.1
2018-09-21T09:02:54.436Z,33.1
2018-09-21T09:03:56.760Z,33.2
2018-09-21T09:04:59.210Z,33.2
2018-09-21T09:06:01.090Z,33.2
2018-09-21T09:07:03.534Z,33.2
2018-09-21T09:08:05.706Z,33.1
2018-09-21T09:09:08.148Z,33.2
2018-09-21T09:10:10.579Z,33.1
2018-09-21T09:11:13.016Z,33.2
2018-09-21T09:12:15.455Z,33.3
2018-09-21T09:13:17.894Z,33.2
2018-09-21T09:14:20.319Z,33.3
2018-09-21T09:15:22.778Z,33.2
2018-09-21T09:16:25.214Z,33.3
2018-09-21T09:17:27.664Z,33.1
2018-09-21T09:18:30.096Z,33.1
2018-09-21T09:19:32.528Z,33.2
2018-09-21T09:20:34.958Z,33.1
2018-09-21T09:21:37.120Z,33.2
2018-09-21T09:22:39.553Z,33.2
2018-09-21T09:23:41.987Z,33.2
2018-09-21T09:25:45.449Z,33.2
2018-09-21T09:26:47.627Z,33.3
2018-09-21T09:27:50.065Z,33.1
2018-09-21T09:28:52.499Z,33.1
2018-09-21T09:29:54.968Z,33
2018-09-21T09:30:57.649Z,33.2
2018-09-21T09:32:00.076Z,33.2
2018-09-21T09:33:02.511Z,33.2
2018-09-21T09:34:04.942Z,33.2
2018-09-21T09:35:07.374Z,33.3
2018-09-21T09:36:09.811Z,33.2
2018-09-21T09:37:12.245Z,33.2
2018-09-21T09:38:14.679Z,33.2
2018-09-21T09:39:17.110Z,33.1
2018-09-21T09:40:19.541Z,33.2
2018-09-21T09:41:21.976Z,33.3
2018-09-21T09:42:24.417Z,33.2
2018-09-21T09:43:27.041Z,33.2
2018-09-21T09:44:29.875Z,33.2
2018-09-21T09:45:32.308Z,33.1
2018-09-21T09:46:34.749Z,33.1
2018-09-21T09:47:37.178Z,33.1
2018-09-21T09:48:39.876Z,33.1
2018-09-21T09:49:42.068Z,33.2
2018-09-21T09:50:43.941Z,33.1
2018-09-21T09:51:46.378Z,33.1
2018-09-21T09:52:48.819Z,33.1
2018-09-21T09:53:51.248Z,33.1
2018-09-21T09:54:53.778Z,33.2
2018-09-21T09:55:56.559Z,33.2
2018-09-21T09:56:58.989Z,33.2
2018-09-21T09:58:01.426Z,33.3
2018-09-21T09:59:03.857Z,33.2
2018-09-21T10:00:06.286Z,33.2
2018-09-21T10:01:08.716Z,33.3
2018-09-21T10:02:11.173Z,33.2
2018-09-21T10:03:13.611Z,33.1
2018-09-21T10:04:16.037Z,33.2
2018-09-21T10:05:18.478Z,33.2
2018-09-21T10:06:20.646Z,33.1
2018-09-21T10:07:22.807Z,33.1
2018-09-21T10:08:25.229Z,33.1
2018-09-21T10:09:27.664Z,33.2
2018-09-21T10:10:30.075Z,33.3
2018-09-21T10:11:32.824Z,33.1
2018-09-21T10:12:35.256Z,33.2
2018-09-21T10:13:37.696Z,33.2
2018-09-21T10:14:40.128Z,33.2
2018-09-21T10:15:42.568Z,33.2
2018-09-21T10:16:45.061Z,33.1
2018-09-21T10:17:47.534Z,33.1
2018-09-21T10:18:49.967Z,33.1
2018-09-21T10:19:52.107Z,33.2
2018-09-21T10:20:54.540Z,33.1
2018-09-21T10:21:56.724Z,33.2
2018-09-21T10:22:59.157Z,33.1
2018-09-21T10:24:01.659Z,33.2
2018-09-21T10:25:04.224Z,33.3
2018-09-21T10:26:06.669Z,33.1
2018-09-21T10:27:09.287Z,33.2
2018-09-21T10:28:12.583Z,33.2
2018-09-21T10:29:15.826Z,33.2
2018-09-21T10:30:18.257Z,33.2
2018-09-21T10:31:20.684Z,33.1
2018-09-21T10:32:23.168Z,33.2
2018-09-21T10:33:25.833Z,33.1
2018-09-21T10:34:28.300Z,33.2
2018-09-21T10:35:31.071Z,33.2
2018-09-21T10:36:34.247Z,33.2
2018-09-21T10:37:36.670Z,33.2
2018-09-21T10:38:39.120Z,33.2
2018-09-21T10:39:41.649Z,33.1
2018-09-21T10:40:44.091Z,33.1
2018-09-21T10:41:46.552Z,33.2
2018-09-21T10:42:49.312Z,33.2
2018-09-21T10:43:52.332Z,33.3
2018-09-21T10:44:54.769Z,33.1
2018-09-21T10:45:57.223Z,33.2
2018-09-21T10:46:59.722Z,33.1
2018-09-21T10:48:02.148Z,33.1
2018-09-21T10:49:04.064Z,33.3
2018-09-21T10:50:06.494Z,33.2
2018-09-21T10:51:08.938Z,33.2
2018-09-21T10:52:11.373Z,33.1
2018-09-21T10:53:13.889Z,33.2
2018-09-21T10:54:16.299Z,33.1
2018-09-21T10:55:18.467Z,33.2
2018-09-21T10:56:20.901Z,33.2
2018-09-21T10:57:23.335Z,33.2
2018-09-21T10:58:25.533Z,33
2018-09-21T10:59:27.978Z,33.1
2018-09-21T11:00:30.254Z,33.3
2018-09-21T11:01:33.059Z,33.2
2018-09-21T11:02:35.487Z,33.1
2018-09-21T11:03:37.933Z,33.2
2018-09-21T11:04:40.366Z,33.2
2018-09-21T11:05:42.849Z,33.1
2018-09-21T11:06:45.268Z,33.2
2018-09-21T11:07:47.711Z,33.2
2018-09-21T11:08:50.223Z,33.2
2018-09-21T11:09:52.768Z,33.2
2018-09-21T11:10:55.224Z,33.2
2018-09-21T11:11:57.675Z,33.3
2018-09-21T11:13:00.139Z,33.2
2018-09-21T11:14:02.681Z,33.2
2018-09-21T11:15:05.109Z,33.3
2018-09-21T11:16:07.538Z,33.5
2018-09-21T11:17:09.976Z,33.3
2018-09-21T11:18:12.407Z,33.3
2018-09-21T11:19:14.843Z,33.4
2018-09-21T11:20:17.062Z,33.5
2018-09-21T11:21:19.487Z,33.4
2018-09-21T11:22:21.933Z,33.4
2018-09-21T11:23:24.398Z,33.5
2018-09-21T11:24:26.851Z,33.5
2018-09-21T11:25:29.289Z,33.6
2018-09-21T11:26:31.714Z,33.5
2018-09-21T11:27:34.144Z,33.5
2018-09-21T11:28:36.574Z,33.6
2018-09-21T11:29:39.008Z,33.4
2018-09-21T11:30:41.180Z,33.5
2018-09-21T11:31:43.612Z,33.6
2018-09-21T11:32:46.041Z,33.6
2018-09-21T11:33:48.474Z,33.7
2018-09-21T11:34:50.920Z,33.6
2018-09-21T11:35:53.349Z,33.6
2018-09-21T11:36:55.785Z,33.6
2018-09-21T11:37:58.227Z,33.6
2018-09-21T11:39:00.672Z,33.7
2018-09-21T11:40:03.116Z,33.7
2018-09-21T11:41:05.738Z,33.8
2018-09-21T11:42:08.700Z,33.7
2018-09-21T11:43:10.837Z,33.5
2018-09-21T11:44:13.268Z,33.6
2018-09-21T11:45:15.711Z,33.7
2018-09-21T11:46:18.154Z,33.6
2018-09-21T11:47:21.020Z,33.6
2018-09-21T11:48:24.283Z,33.4
2018-09-21T11:49:26.740Z,33.5
2018-09-21T11:50:29.156Z,33.5
2018-09-21T11:51:31.596Z,33.6
2018-09-21T11:52:34.039Z,33.5
2018-09-21T11:53:36.477Z,33.5
2018-09-21T11:54:38.914Z,33.5
2018-09-21T11:55:41.343Z,33.5
2018-09-21T11:56:43.778Z,33.5
2018-09-21T11:57:46.216Z,33.5
2018-09-21T11:58:48.657Z,33.5
2018-09-21T11:59:51.096Z,33.4
2018-09-21T12:00:53.549Z,33.5
2018-09-21T12:01:56.053Z,33.5
2018-09-21T12:02:58.876Z,33.5
2018-09-21T12:04:01.039Z,33.5
2018-09-21T12:05:03.316Z,33.4
2018-09-21T12:06:06.244Z,33.4
2018-09-21T12:07:08.127Z,33.5
2018-09-21T12:08:10.556Z,33.5
2018-09-21T12:09:12.989Z,33.5
2018-09-21T12:10:15.423Z,33.5
2018-09-21T12:11:17.858Z,33.5
2018-09-21T12:12:20.293Z,33.5
2018-09-21T12:13:22.738Z,33.4
2018-09-21T12:14:25.167Z,33.5
2018-09-21T12:15:27.602Z,33.5
2018-09-21T12:16:29.828Z,33.5
2018-09-21T12:17:32.344Z,33.5
2018-09-21T12:18:34.561Z,33.4
2018-09-21T12:19:36.772Z,33.4
2018-09-21T12:20:39.199Z,33.5
2018-09-21T12:21:41.359Z,33.5
2018-09-21T12:22:43.938Z,33.5
2018-09-21T12:23:46.599Z,33.5
2018-09-21T12:24:48.763Z,33.4
2018-09-21T12:25:50.929Z,33.4
2018-09-21T12:26:53.368Z,33.3
2018-09-21T12:27:55.804Z,33.5
2018-09-21T12:28:58.439Z,33.5
2018-09-21T12:30:00.870Z,33.4
2018-09-21T12:31:03.321Z,33.5
2018-09-21T12:32:05.738Z,33.5
2018-09-21T12:33:07.930Z,33.3
2018-09-21T12:34:10.105Z,33.4
2018-09-21T12:35:12.538Z,33.4
2018-09-21T12:36:15.098Z,33.3
2018-09-21T12:37:17.666Z,33.3
2018-09-21T12:38:20.123Z,33.4
2018-09-21T12:39:22.559Z,33.4
2018-09-21T12:40:25.009Z,33.5
2018-09-21T12:41:27.448Z,33.4
2018-09-21T12:42:29.981Z,33.5
2018-09-21T12:43:32.784Z,33.4
2018-09-21T12:44:35.435Z,33.4
2018-09-21T12:45:38.170Z,33.4
2018-09-21T12:46:40.084Z,33.4
2018-09-21T12:47:42.515Z,33.3
2018-09-21T12:48:44.953Z,33.3
2018-09-21T12:49:47.396Z,33.3
2018-09-21T12:50:49.919Z,33.3
2018-09-21T12:51:52.667Z,33.5
2018-09-21T12:52:55.109Z,33.5
2018-09-21T12:53:57.539Z,33.4
2018-09-21T12:54:59.965Z,33.5
2018-09-21T12:56:02.409Z,33.4
2018-09-21T12:57:04.579Z,33.3
2018-09-21T12:58:07.281Z,33.4
2018-09-21T12:59:10.121Z,33.5
2018-09-21T13:00:12.588Z,33.4
2018-09-21T13:01:15.031Z,33.3
2018-09-21T13:02:17.471Z,33.3
2018-09-21T13:03:19.920Z,33.4
2018-09-21T13:04:22.350Z,33.3
2018-09-21T13:05:24.793Z,33.5
2018-09-21T13:06:27.434Z,33.3
2018-09-21T13:07:30.339Z,33.4
2018-09-21T13:08:32.781Z,33.5
2018-09-21T13:09:35.202Z,33.3
2018-09-21T13:10:37.650Z,33.4
2018-09-21T13:11:40.106Z,33.4
2018-09-21T13:12:42.550Z,33.4
2018-09-21T13:13:44.985Z,33.4
2018-09-21T13:14:47.453Z,33.4
2018-09-21T13:15:49.910Z,33.4
2018-09-21T13:16:52.347Z,33.3
2018-09-21T13:17:54.781Z,33.4
2018-09-21T13:18:56.929Z,33.3
2018-09-21T13:19:59.376Z,33.4
2018-09-21T13:21:01.807Z,33.4
2018-09-21T13:22:04.253Z,33.4
2018-09-21T13:23:06.687Z,33.2
2018-09-21T13:24:09.127Z,33.4
2018-09-21T13:25:11.549Z,33.3
2018-09-21T13:26:13.982Z,33.4
2018-09-21T13:27:16.429Z,33.3
2018-09-21T13:28:18.620Z,33.5
2018-09-21T13:29:21.050Z,33.3
2018-09-21T13:30:23.484Z,33.4
2018-09-21T13:31:25.930Z,33.4
2018-09-21T13:32:28.490Z,33.3
2018-09-21T13:33:30.934Z,33.2
2018-09-21T13:34:33.391Z,33.3
2018-09-21T13:35:35.528Z,33.4
2018-09-21T13:36:37.963Z,33.3
2018-09-21T13:37:40.394Z,33.3
2018-09-21T13:38:42.827Z,33.4
2018-09-21T13:39:45.259Z,33.4
2018-09-21T13:40:47.691Z,33.3
2018-09-21T13:41:50.146Z,33.3
2018-09-21T13:42:52.583Z,33.5
2018-09-21T13:43:55.029Z,33.3
2018-09-21T13:44:57.191Z,33.4
2018-09-21T13:45:59.625Z,33.5
2018-09-21T13:47:02.052Z,33.3
2018-09-21T13:48:04.497Z,33.2
2018-09-21T13:49:06.690Z,33.4
2018-09-21T13:50:08.831Z,33.4
2018-09-21T13:51:11.306Z,33.4
2018-09-21T13:52:13.735Z,33.4
2018-09-21T13:53:15.878Z,33.4
2018-09-21T13:54:18.318Z,33.3
2018-09-21T13:55:20.757Z,33.3